Flight Track Log - Related Links

Times and Time Zones

All times are in EDT time to prevent confusion due to time zone crossing. See the N8KB flight status page for this flight to view local times or setup timezone preferences in your user account.

Time Position Orientation Groundspeed Altitude Reporting Facility
EDT Latitude Longitude Course Direction KTS MPH feet Rate Location/Type
Sat 01:48:54 PM 35.0456 -106.5786 331° Northwest 164 189 6,300  Level Albuquerque Center
Sat 01:50:19 PM 35.0858 -106.6064 331° Northwest 175 201 8,700 1,796 Climbing Albuquerque Center
Sat 01:51:21 PM 35.0806 -106.6622 263° West 173 199 10,700 2,032 Climbing Albuquerque Center
Sat 01:52:23 PM 35.0622 -106.7250 250° West 168 193 12,900 1,839 Climbing Albuquerque Center
Sat 01:53:25 PM 35.0531 -106.7800 259° West 163 188 14,500 1,597 Climbing Albuquerque Center
Sat 01:54:27 PM 35.0397 -106.8353 254° West 167 192 16,200 1,597 Climbing Albuquerque Center
Sat 01:55:29 PM 35.0419 -106.8953 273° West 168 193 17,800 1,463 Climbing Albuquerque Center
Sat 01:56:30 PM 35.0469 -106.9456 277° West 161 185 19,200 1,463 Climbing Albuquerque Center
Sat 01:57:32 PM 35.0456 -106.9997 268° West 144 166 20,800 1,306 Climbing Albuquerque Center
Sat 01:58:34 PM 35.0481 -107.0472 274° West 149 171 21,900 581 Climbing Albuquerque Center
Sat 01:59:36 PM 35.0500 -107.1117 272° West 171 197 22,000 48 Climbing Albuquerque Center
Sat 02:00:38 PM 35.0519 -107.1842 272° West 216 249 22,000  Level Albuquerque Center
Sat 02:01:40 PM 35.0514 -107.2586 269° West 234 269 22,000  Level Albuquerque Center
Sat 02:02:41 PM 35.0556 -107.3536 273° West 234 269 22,000  Level Albuquerque Center
Sat 02:03:43 PM 35.0581 -107.4344 272° West 236 272 22,000  Level Albuquerque Center
Sat 02:04:45 PM 35.0581 -107.5144 270° West 237 273 22,000  Level Albuquerque Center
Sat 02:05:47 PM 35.0572 -107.5956 269° West 238 274 22,000  Level Albuquerque Center
Sat 02:06:49 PM 35.0594 -107.6764 272° West 238 274 22,000  Level Albuquerque Center
Sat 02:07:50 PM 35.0600 -107.7575 271° West 239 275 22,000  Level Albuquerque Center
Sat 02:08:52 PM 35.0619 -107.8550 271° West 240 276 22,000  Level Albuquerque Center
Sat 02:09:54 PM 35.0628 -107.9336 271° West 242 278 22,000  Level Albuquerque Center
Sat 02:10:56 PM 35.0653 -108.0117 272° West 241 277 22,000  Level Albuquerque Center
Sat 02:11:57 PM 35.0656 -108.1014 270° West 238 274 22,000  Level Albuquerque Center
Sat 02:12:59 PM 35.0656 -108.1767 270° West 233 268 22,000  Level Albuquerque Center
Sat 02:14:01 PM 35.0647 -108.2675 269° West 238 274 22,000  Level Albuquerque Center
Sat 02:15:02 PM 35.0658 -108.3456 271° West 240 276 22,000  Level Albuquerque Center
Sat 02:16:04 PM 35.0683 -108.4367 272° West 241 277 22,000  Level Albuquerque Center
Sat 02:17:06 PM 35.0703 -108.5164 272° West 243 280 22,000  Level Albuquerque Center
Sat 02:18:07 PM 35.0700 -108.5936 270° West 240 276 22,000  Level Albuquerque Center
Sat 02:19:09 PM 35.0706 -108.6850 270° West 240 276 22,000  Level Albuquerque Center
Sat 02:20:11 PM 35.0706 -108.7642 270° West 243 280 22,000  Level Albuquerque Center
Sat 02:21:12 PM 35.0717 -108.8550 271° West 240 276 22,000  Level Albuquerque Center
Sat 02:22:14 PM 35.0717 -108.9339 270° West 242 278 22,000  Level Albuquerque Center
Sat 02:23:16 PM 35.0722 -109.0133 271° West 243 280 22,000  Level Albuquerque Center
Sat 02:24:17 PM 35.0725 -109.1053 270° West 243 280 22,000  Level Albuquerque Center
Sat 02:25:19 PM 35.0731 -109.1850 271° West 243 280 22,000  Level Albuquerque Center
Sat 02:26:21 PM 35.0739 -109.2786 271° West 246 283 22,000  Level Albuquerque Center
Sat 02:27:22 PM 35.0736 -109.3578 270° West 245 282 22,000  Level Albuquerque Center
Sat 02:28:24 PM 35.0731 -109.4375 270° West 244 281 22,000  Level Albuquerque Center
Sat 02:29:25 PM 35.0728 -109.5300 270° West 243 280 22,000  Level Albuquerque Center
Sat 02:30:27 PM 35.0717 -109.6078 269° West 241 277 22,000  Level Albuquerque Center
Sat 02:31:29 PM 35.0711 -109.7011 270° West 244 281 22,000  Level Albuquerque Center
Sat 02:32:30 PM 35.0694 -109.7786 269° West 241 277 22,000  Level Albuquerque Center
Sat 02:33:32 PM 35.0703 -109.8714 271° West 242 278 22,000  Level Albuquerque Center
Sat 02:34:34 PM 35.0703 -109.9494 270° West 242 278 22,000  Level Albuquerque Center
Sat 02:35:35 PM 35.0697 -110.0272 270° West 240 276 22,000  Level Albuquerque Center
Sat 02:36:37 PM 35.0706 -110.1197 271° West 242 278 22,000  Level Albuquerque Center
Sat 02:37:38 PM 35.0711 -110.2017 270° West 248 285 22,000  Level Albuquerque Center
Sat 02:39:41 PM 35.0675 -110.3708 269° West 242 278 22,000  Level Albuquerque Center
Sat 02:40:43 PM 35.0681 -110.4489 271° West 241 277 22,000  Level Albuquerque Center
Sat 02:41:44 PM 35.0647 -110.5400 267° West 241 277 22,000  Level Albuquerque Center
Sat 02:42:46 PM 35.0575 -110.6178 264° West 254 292 22,000 -48 Level Albuquerque Center
Sat 02:43:48 PM 35.0092 -110.6908 231° Southwest 247 284 21,900 -439 Descending Albuquerque Center
Sat 02:44:49 PM 34.9583 -110.7517 224° Southwest 259 298 21,100 -878 Descending Albuquerque Center
Sat 02:45:51 PM 34.9039 -110.8250 228° Southwest 271 312 20,100 -537 Descending Albuquerque Center
Sat 02:46:52 PM 34.8622 -110.8989 236° Southwest 265 305 20,000 -49 Descending Albuquerque Center
Sat 02:47:54 PM 34.8239 -110.9683 236° Southwest 253 291 20,000  Level Albuquerque Center
Sat 02:48:55 PM 34.7819 -111.0367 233° Southwest 253 291 20,000  Level Albuquerque Center
Sat 02:49:57 PM 34.7383 -111.1019 231° Southwest 251 289 20,000  Level Albuquerque Center
Sat 02:50:59 PM 34.6953 -111.1656 231° Southwest 245 282 20,000  Level Albuquerque Center
Sat 02:52:00 PM 34.6542 -111.2311 233° Southwest 245 282 20,000 -195 Level Albuquerque Center
Sat 02:53:02 PM 34.6056 -111.3106 233° Southwest 244 281 19,600 -634 Descending Albuquerque Center
Sat 02:54:03 PM 34.5600 -111.3789 231° Southwest 255 293 18,700 -878 Descending Albuquerque Center
Sat 02:55:05 PM 34.5119 -111.4494 230° Southwest 267 307 17,800 -1,161 Descending Albuquerque Center
Sat 02:56:07 PM 34.4644 -111.5217 231° Southwest 273 314 16,300 -1,317 Descending Albuquerque Center
Sat 02:57:08 PM 34.4183 -111.5958 233° Southwest 275 316 15,100 -1,220 Descending Albuquerque Center
Sat 02:58:10 PM 34.3711 -111.6689 232° Southwest 276 318 13,800 -1,344 Descending Albuquerque Center
Sat 02:59:13 PM 34.3125 -111.7531 230° Southwest 275 316 12,300 -1,210 Descending Albuquerque Center
Sat 03:00:14 PM 34.2658 -111.8239 231° Southwest 273 314 11,300 -683 Descending Albuquerque Center
Sat 03:01:16 PM 34.2228 -111.8925 233° Southwest 265 305 10,900 -290 Descending Albuquerque Center
Sat 03:02:18 PM 34.1658 -111.9242 205° Southwest 243 280 10,700 -439 Descending Albuquerque Center
Sat 03:03:19 PM 34.0997 -111.9375 189° South 243 280 10,000 -732 Descending Albuquerque Center
Sat 03:04:21 PM 34.0319 -111.9361 179° South 245 282 9,200 -1,024 Descending Albuquerque Center
Sat 03:05:22 PM 33.9544 -111.9275 175° South 239 275 7,900 -1,220 Descending Albuquerque Center
Sat 03:06:24 PM 33.8906 -111.9169 172° South 237 273 6,700 -1,210 Descending Albuquerque Center
Sat 03:07:26 PM 33.8278 -111.9042 170° South 231 266 5,400 -1,122 Descending Albuquerque Center
Sat 03:08:27 PM 33.7675 -111.8933 172° South 221 254 4,400 -829 Descending Albuquerque Center
Sat 03:09:29 PM 33.7106 -111.8839 172° South 211 243 3,700 -629 Descending Albuquerque Center
Sat 03:10:31 PM 33.6706 -111.8750 170° South 169 194 3,100 -976 Descending Albuquerque Center
Sat 03:11:32 PM 33.6386 -111.8972 210° Southwest 145 167 1,700 -1,377 Descending Albuquerque Center
Sat 03:13:00 PM 33.6229 -111.9105 189° South  Level Estimated

Login

Don't have an account? Register now (free) for customized features, flight alerts, and more!